Airport View

Enter AWOS ICAO identifier for current METAR.

ex. KFNL

KFDW 170930Z AUTO 36011G17KT 10SM CLR 05/00 A3004 RMK AO1

17 Nov 2019 09:23

Frequency: 119.075

Phone: 803-712-2577

Other Area AWOS: KCUB - KCAE - KEOE - KCDN

TAF AMD KCUB 170848Z 1709/1806 36007KT P6SM FEW030 BKN060 FM171800 35007KT P6SM SCT050